Accueil
METAR-TAF:

METAR-TAF

Aéroports :

Aéroport international de Pékin-Capitale

Pékin, Chine

latitude: 39-56N, longitude: 116-17E, altitude: 55 m

Observation

Le bulletin a été fait il y a 42 minutes, à 01:00 UTC
Vent 6 kt de nord/nord-ouest, variant entre nord-ouest et nord
Température 4°C
Humidité 30%
Pression 1026 hPa
Visibilité 10 km ou plus
pas de nuages en-dessous de 1500 mètres et pas de cumulonimbus.

METAR: ZBAA 220100Z 34003MPS 310V010 CAVOK 04/M12 Q1026 NOSIG

Heure: 09:42 (01:42 UTC)

Prévision

Le bulletin a été fait il y a 4 heures et 12 minutes, à 21:30 UTC
Prévision valable du 22 à 00 UTC au 22 à 24 UTC
Vent 8 kt de nord
Visibilité: 3500 m
brume

TAF: ZBAA 212130Z 2200/2224 36004MPS 3500 BR NSC TX13/2207Z TNM02/21Z

Observations et prévisions météorologiques de plus de 4000 aéroports (messages METAR et TAF).

Les stations disponibles sont représentées par des disques jaunes et rouges sur la carte.

Passer la souris dessus pour voir le nom de la station.

Cliquer dessus pour voir les observations et prévisions météorologiques.

Pour changer de carte: cliquez sur les boutons verts avec une croix noire pour zoomer, sur le bouton vert avec un tiret pour effectuer un zoom arrière, ou sur les flèches vertes pour les cartes adjacentes.


METAR-TAF: